Rutersville, Texas
Current Conditions -  °F | °C
As of 6:30 PM on Sunday 21 Dec 2014 (Local Time) from K3T5 Reporting Station
Overcast Overcast  
Wind Chill: 58°   Ceiling: 3200
Heat Index: 58°   Visibility: 10mi
Dew Point: 54°   Wind: 3mph
Humidity: 87%   Direction: 190°S
Pressure: 29.89"   Gusts: NA
Location:  29.8569°N, 96.9311°W
Report Text: K3T5 220030Z AUTO 19003KT 10SM SCT021 SCT028 OVC032 14/12 A2989 RMK AO2 T01420120
Loading
Personal Weather Stations






























Interactive Weather Map New forecast layout! Learn more

10-Day Weather Forecast

Advertisements
Track Severe Weather on mobile